Portada
METAR-TAF:

METAR-TAF

Aeroports :

Shell Mera, Equador

latitud: 01-30-19S, longitud: 078-03-46W, altitud: 1056 m

Observació

L'informe es va fer fa 35 minuts, a les 14:00 UTC
Vent 5 kt del Nord/Nord-Oest
Temperatura 23°C
Humitat 65%
Pressió 1021 hPa
Visibilitat 10 km o més
Núvols disperses a una alçada de 2600 ft

METAR: SESM 261400Z 33005KT 9999 SCT026 23/16 Q1021 RMK A3015

Hora: 09:35 (14:35 UTC)


TAF: manca

Observacions i pronòstics meteorològics de més de 4000 aeroports (METAR i TAF).

Les estacions disponibles són els punts grocs i vermells al mapa.

Posi el ratolí al punt desitjat per veure el nom de l'estació.

Feu clic per veure les observacions i els pronòstics meteorològics.

Per canviar el mapa: feu clic els botons verds amb una creu de color negre per apropar; al botó verd amb un guió per allunyar la imatge; o en les fletxes verdes per a mapes adjacents.


METAR-TAF: